createdAt,value
2023-11-03T00:02:16.423Z,25.85
2023-11-03T00:04:44.400Z,25.90
2023-11-03T00:07:11.889Z,26.05
2023-11-03T00:09:39.175Z,26.07
2023-11-03T00:12:07.258Z,26.06
2023-11-03T00:14:34.688Z,25.96
2023-11-03T00:17:01.983Z,25.82
2023-11-03T00:19:31.921Z,25.76
2023-11-03T00:21:59.333Z,25.72
2023-11-03T00:24:26.830Z,25.74
2023-11-03T00:26:55.670Z,25.83
2023-11-03T00:29:23.806Z,25.81
2023-11-03T00:31:51.590Z,25.82
2023-11-03T00:34:19.170Z,25.85
2023-11-03T00:36:48.409Z,25.78
2023-11-03T00:39:16.642Z,25.72
2023-11-03T00:41:44.202Z,25.70
2023-11-03T00:44:11.834Z,25.72
2023-11-03T00:46:39.657Z,25.71
2023-11-03T00:49:08.879Z,25.70
2023-11-03T00:51:36.860Z,25.70
2023-11-03T00:54:05.152Z,25.73
2023-11-03T00:56:34.124Z,25.72
2023-11-03T00:59:01.287Z,25.71
2023-11-03T01:01:28.648Z,25.65
2023-11-03T01:03:56.887Z,25.65
2023-11-03T01:06:24.318Z,25.64
2023-11-03T01:08:55.549Z,25.64
2023-11-03T01:11:27.337Z,25.61
2023-11-03T01:13:54.728Z,25.69
2023-11-03T01:16:23.299Z,25.70
2023-11-03T01:18:50.714Z,25.72
2023-11-03T01:21:18.956Z,25.67
2023-11-03T01:23:49.835Z,25.65
2023-11-03T01:26:17.652Z,25.66
2023-11-03T01:28:44.906Z,25.67
2023-11-03T01:31:12.277Z,25.66
2023-11-03T01:33:42.567Z,25.63
2023-11-03T01:36:10.287Z,25.64
2023-11-03T01:38:39.536Z,25.60
2023-11-03T01:41:09.808Z,25.47
2023-11-03T01:43:37.135Z,25.49
2023-11-03T01:46:04.289Z,25.51
2023-11-03T01:48:32.529Z,25.50
2023-11-03T01:51:00.988Z,25.46
2023-11-03T01:53:32.011Z,25.45
2023-11-03T01:55:59.728Z,25.48
2023-11-03T01:58:26.909Z,25.43
2023-11-03T02:00:55.162Z,25.42
2023-11-03T02:03:22.678Z,25.41
2023-11-03T02:05:50.035Z,25.42
2023-11-03T02:08:18.244Z,25.41
2023-11-03T02:10:45.802Z,25.36
2023-11-03T02:13:13.289Z,25.33
2023-11-03T02:15:40.818Z,25.30
2023-11-03T02:18:10.697Z,25.30
2023-11-03T02:20:37.925Z,25.28
2023-11-03T02:23:05.977Z,25.25
2023-11-03T02:25:33.492Z,25.23
2023-11-03T02:28:00.774Z,25.24
2023-11-03T02:30:28.603Z,25.32
2023-11-03T02:32:55.965Z,25.33
2023-11-03T02:35:23.076Z,25.25
2023-11-03T02:37:50.357Z,25.23
2023-11-03T02:40:18.022Z,25.21
2023-11-03T02:42:45.880Z,25.27
2023-11-03T02:45:13.587Z,25.23
2023-11-03T02:47:40.993Z,25.22
2023-11-03T02:50:09.119Z,25.20
2023-11-03T02:52:36.436Z,25.14
2023-11-03T02:55:04.948Z,25.11
2023-11-03T02:57:32.257Z,25.11
2023-11-03T02:59:59.671Z,25.07
2023-11-03T03:02:26.669Z,25.12
2023-11-03T03:04:53.818Z,25.08
2023-11-03T03:07:21.249Z,25.06
2023-11-03T03:09:48.387Z,25.04
2023-11-03T03:12:16.236Z,25.05
2023-11-03T03:14:43.566Z,25.11
2023-11-03T03:17:10.791Z,25.11
2023-11-03T03:19:38.223Z,25.13
2023-11-03T03:22:05.533Z,25.03
2023-11-03T03:24:33.031Z,24.98
2023-11-03T03:27:00.324Z,25.01
2023-11-03T03:29:27.453Z,25.07
2023-11-03T03:31:54.849Z,25.09
2023-11-03T03:34:22.087Z,25.18
2023-11-03T03:36:49.986Z,25.42
2023-11-03T03:39:17.214Z,25.54
2023-11-03T03:41:44.686Z,25.59
2023-11-03T03:44:12.240Z,25.41
2023-11-03T03:46:40.253Z,25.19
2023-11-03T03:49:07.558Z,25.22
2023-11-03T03:51:34.908Z,25.19
2023-11-03T03:54:02.047Z,25.14
2023-11-03T03:56:29.710Z,25.17
2023-11-03T03:58:56.835Z,25.19
2023-11-03T04:01:24.263Z,25.21
2023-11-03T04:03:51.674Z,25.24
2023-11-03T04:06:19.217Z,25.23
2023-11-03T04:08:46.644Z,25.12
2023-11-03T04:11:14.186Z,25.13
2023-11-03T04:13:41.658Z,25.14
2023-11-03T04:16:09.144Z,25.04
2023-11-03T04:18:40.235Z,24.97
2023-11-03T04:21:07.707Z,24.96
2023-11-03T04:23:35.221Z,25.06
2023-11-03T04:26:02.496Z,24.23
2023-11-03T04:28:34.298Z,23.95
2023-11-03T04:31:01.885Z,23.88
2023-11-03T04:33:29.702Z,23.87
2023-11-03T04:35:57.114Z,24.03
2023-11-03T04:38:24.312Z,24.69
2023-11-03T04:40:51.687Z,24.72
2023-11-03T04:43:20.994Z,24.76
2023-11-03T04:45:48.486Z,24.83
2023-11-03T04:48:16.153Z,24.89
2023-11-03T04:50:43.552Z,24.91
2023-11-03T04:53:10.876Z,24.96
2023-11-03T04:55:38.179Z,25.02
2023-11-03T04:58:05.534Z,25.08
2023-11-03T05:00:33.313Z,25.04
2023-11-03T05:03:01.262Z,25.15
2023-11-03T05:05:33.323Z,25.20
2023-11-03T05:08:00.667Z,25.27
2023-11-03T05:10:27.966Z,25.30
2023-11-03T05:12:55.577Z,25.32
2023-11-03T05:15:23.120Z,25.33
2023-11-03T05:17:50.677Z,25.32
2023-11-03T05:20:18.247Z,25.37
2023-11-03T05:22:45.743Z,25.40
2023-11-03T05:25:16.010Z,25.43
2023-11-03T05:27:43.623Z,25.47
2023-11-03T05:30:11.764Z,25.47
2023-11-03T05:32:39.215Z,25.56
2023-11-03T05:35:07.507Z,25.51
2023-11-03T05:37:35.060Z,25.45
2023-11-03T05:40:04.889Z,25.54
2023-11-03T05:42:32.952Z,25.58
2023-11-03T05:45:00.602Z,25.65
2023-11-03T05:47:28.273Z,25.66
2023-11-03T05:49:56.157Z,25.72
2023-11-03T05:52:24.171Z,25.75
2023-11-03T05:54:51.629Z,25.80
2023-11-03T05:57:19.028Z,25.87
2023-11-03T05:59:46.669Z,25.95
2023-11-03T06:02:14.215Z,25.96
2023-11-03T06:04:42.486Z,25.51
2023-11-03T06:07:11.077Z,25.47
2023-11-03T06:09:41.772Z,25.58
2023-11-03T06:12:09.350Z,25.63
2023-11-03T06:14:37.160Z,25.66
2023-11-03T06:17:04.690Z,25.70
2023-11-03T06:19:32.324Z,26.14
2023-11-03T06:21:59.870Z,26.38
2023-11-03T06:24:27.870Z,26.65
2023-11-03T06:27:00.010Z,27.01
2023-11-03T06:29:27.777Z,27.14
2023-11-03T06:31:55.311Z,27.27
2023-11-03T06:34:23.175Z,27.47
2023-11-03T06:36:50.817Z,27.50
2023-11-03T06:39:19.719Z,27.74
2023-11-03T06:41:47.319Z,27.93
2023-11-03T06:44:15.383Z,28.06
2023-11-03T06:46:42.896Z,27.98
2023-11-03T06:49:10.756Z,27.91
2023-11-03T06:51:38.307Z,27.99
2023-11-03T06:54:05.905Z,27.92
2023-11-03T06:56:33.842Z,28.09
2023-11-03T06:59:01.484Z,28.17
2023-11-03T07:01:29.334Z,28.29
2023-11-03T07:03:56.914Z,28.43
2023-11-03T07:06:24.113Z,28.57
2023-11-03T07:08:51.517Z,28.66
2023-11-03T07:11:20.243Z,28.75
2023-11-03T07:13:48.069Z,28.91
2023-11-03T07:16:15.467Z,29.16
2023-11-03T07:18:46.120Z,29.37
2023-11-03T07:21:15.790Z,29.62
2023-11-03T07:23:43.494Z,29.81
2023-11-03T07:26:14.104Z,29.93
2023-11-03T07:28:46.444Z,30.17
2023-11-03T07:31:14.396Z,30.30
2023-11-03T07:33:42.251Z,30.50
2023-11-03T07:36:11.097Z,30.67
2023-11-03T07:38:38.901Z,30.89
2023-11-03T07:41:09.183Z,31.02
2023-11-03T07:43:40.033Z,31.18
2023-11-03T07:46:07.633Z,31.28
2023-11-03T07:48:35.957Z,31.40
2023-11-03T07:51:04.352Z,31.51
2023-11-03T07:53:31.624Z,31.65
2023-11-03T07:55:59.814Z,31.75
2023-11-03T07:58:28.621Z,31.98
2023-11-03T08:00:58.922Z,32.19
2023-11-03T08:03:28.776Z,32.35
2023-11-03T08:05:56.505Z,32.49
2023-11-03T08:08:23.872Z,32.66
2023-11-03T08:10:51.504Z,32.77
2023-11-03T08:13:20.295Z,32.95
2023-11-03T08:15:47.749Z,32.97
2023-11-03T08:18:15.103Z,33.04
2023-11-03T08:20:42.494Z,33.12
2023-11-03T08:23:15.104Z,33.25
2023-11-03T08:25:44.864Z,33.41
2023-11-03T08:28:13.314Z,33.51
2023-11-03T08:30:41.065Z,33.59
2023-11-03T08:33:09.590Z,33.69
2023-11-03T08:35:37.205Z,33.88
2023-11-03T08:38:06.089Z,34.05
2023-11-03T08:40:33.527Z,34.06
2023-11-03T08:43:01.840Z,34.15
2023-11-03T08:45:29.811Z,34.27
2023-11-03T08:47:57.400Z,34.32
2023-11-03T08:50:26.042Z,33.93
2023-11-03T08:52:55.049Z,34.04
2023-11-03T08:55:26.148Z,34.20
2023-11-03T08:57:55.296Z,34.38
2023-11-03T09:00:22.936Z,34.31
2023-11-03T09:02:51.505Z,34.18
2023-11-03T09:05:19.470Z,34.16
2023-11-03T09:07:48.790Z,34.21
2023-11-03T09:10:16.405Z,34.25
2023-11-03T09:12:44.240Z,34.28
2023-11-03T09:15:12.728Z,34.28
2023-11-03T09:17:45.132Z,34.32
2023-11-03T09:20:15.598Z,34.34
2023-11-03T09:22:43.448Z,34.34
2023-11-03T09:25:13.027Z,34.35
2023-11-03T09:27:41.138Z,34.37
2023-11-03T09:30:11.222Z,34.44
2023-11-03T09:32:39.642Z,34.58
2023-11-03T09:35:07.701Z,34.68
2023-11-03T09:37:35.984Z,34.61
2023-11-03T09:40:03.603Z,34.63
2023-11-03T09:42:31.604Z,34.66
2023-11-03T09:45:00.274Z,34.77
2023-11-03T09:47:27.818Z,34.90
2023-11-03T09:49:58.680Z,34.90
2023-11-03T09:52:26.363Z,34.93
2023-11-03T09:54:55.678Z,34.90
2023-11-03T09:57:24.105Z,34.97
2023-11-03T09:59:51.629Z,35.03
2023-11-03T10:02:20.765Z,35.08
2023-11-03T10:04:48.398Z,35.02
2023-11-03T10:07:18.061Z,35.08
2023-11-03T10:09:45.912Z,35.05
2023-11-03T10:12:21.288Z,35.04
2023-11-03T10:14:49.337Z,35.08
2023-11-03T10:17:18.168Z,35.13
2023-11-03T10:19:47.002Z,35.21
2023-11-03T10:22:14.890Z,35.09
2023-11-03T10:24:42.770Z,35.13
2023-11-03T10:27:12.716Z,35.37
2023-11-03T10:29:41.242Z,35.40
2023-11-03T10:32:10.130Z,35.29
2023-11-03T10:34:38.943Z,35.36
2023-11-03T10:37:07.189Z,35.52
2023-11-03T10:42:05.493Z,35.63
2023-11-03T10:44:33.632Z,35.64
2023-11-03T10:47:06.924Z,35.64
2023-11-03T10:49:37.513Z,35.60
2023-11-03T10:52:14.833Z,35.73
2023-11-03T10:54:44.636Z,35.82
2023-11-03T10:57:36.824Z,35.73
2023-11-03T11:00:10.883Z,35.89
2023-11-03T11:02:44.760Z,35.66
2023-11-03T11:05:24.714Z,35.60
2023-11-03T11:07:56.393Z,35.45
2023-11-03T11:10:43.213Z,34.70
2023-11-03T11:13:20.693Z,35.24
2023-11-03T11:15:57.392Z,35.42
2023-11-03T11:18:26.646Z,35.46
2023-11-03T11:20:57.499Z,35.52
2023-11-03T11:23:24.727Z,35.55
2023-11-03T11:25:52.165Z,35.63
2023-11-03T11:28:40.416Z,35.64
2023-11-03T11:31:26.132Z,35.68
2023-11-03T11:34:04.882Z,35.65
2023-11-03T11:36:33.285Z,35.65
2023-11-03T11:39:07.501Z,35.95
2023-11-03T11:41:36.264Z,36.09
2023-11-03T11:44:06.314Z,36.00
2023-11-03T11:46:34.086Z,35.82
2023-11-03T11:49:04.758Z,35.97
2023-11-03T11:51:33.807Z,36.34
2023-11-03T11:54:02.390Z,36.41
2023-11-03T11:56:30.124Z,36.29
2023-11-03T11:58:57.550Z,36.25
2023-11-03T12:01:25.025Z,36.24
2023-11-03T12:03:54.802Z,36.23
2023-11-03T12:06:22.481Z,36.23
2023-11-03T12:08:50.080Z,36.13
2023-11-03T12:11:17.568Z,36.04
2023-11-03T12:13:48.418Z,35.93
2023-11-03T12:16:15.846Z,35.84
2023-11-03T12:18:43.668Z,35.76
2023-11-03T12:21:11.169Z,35.75
2023-11-03T12:23:40.564Z,35.88
2023-11-03T12:26:09.525Z,35.71
2023-11-03T12:28:39.365Z,35.65
2023-11-03T12:31:07.488Z,35.51
2023-11-03T12:33:38.840Z,35.34
2023-11-03T12:36:06.834Z,35.43
2023-11-03T12:38:47.650Z,35.44
2023-11-03T12:41:16.683Z,35.27
2023-11-03T12:43:49.882Z,35.24
2023-11-03T12:46:17.910Z,35.17
2023-11-03T12:48:45.433Z,35.12
2023-11-03T12:51:13.236Z,35.20
2023-11-03T12:53:50.358Z,35.06
2023-11-03T12:56:17.778Z,34.95
2023-11-03T12:58:46.622Z,34.87
2023-11-03T13:01:14.366Z,34.85
2023-11-03T13:03:41.978Z,34.83
2023-11-03T13:06:10.730Z,34.76
2023-11-03T13:08:39.850Z,34.84
2023-11-03T13:11:09.237Z,34.73
2023-11-03T13:13:36.926Z,34.70
2023-11-03T13:16:06.001Z,34.70
2023-11-03T13:18:33.452Z,34.72
2023-11-03T13:21:01.200Z,34.63
2023-11-03T13:23:28.750Z,34.52
2023-11-03T13:25:56.298Z,34.34
2023-11-03T13:28:25.549Z,34.29
2023-11-03T13:30:57.366Z,34.29
2023-11-03T13:33:24.689Z,34.25
2023-11-03T13:35:52.101Z,34.33
2023-11-03T13:38:19.568Z,34.42
2023-11-03T13:40:51.172Z,34.18
2023-11-03T13:43:18.859Z,33.98
2023-11-03T13:45:48.432Z,33.84
2023-11-03T13:48:15.885Z,33.77
2023-11-03T13:50:43.849Z,33.77
2023-11-03T13:53:11.284Z,33.88
2023-11-03T13:55:38.779Z,34.06
2023-11-03T13:58:09.287Z,33.95
2023-11-03T14:00:36.817Z,33.95
2023-11-03T14:03:06.113Z,33.86
2023-11-03T14:05:36.818Z,33.94
2023-11-03T14:08:06.820Z,33.55
2023-11-03T14:10:34.269Z,33.57
2023-11-03T14:13:02.696Z,33.32
2023-11-03T14:15:31.156Z,33.43
2023-11-03T14:18:00.512Z,33.52
2023-11-03T14:20:28.156Z,33.52
2023-11-03T14:22:56.034Z,33.37
2023-11-03T14:25:25.528Z,33.15
2023-11-03T14:27:53.096Z,33.06
2023-11-03T14:30:21.266Z,33.20
2023-11-03T14:32:48.928Z,33.04
2023-11-03T14:35:16.382Z,32.89
2023-11-03T14:37:44.388Z,32.83
2023-11-03T14:40:16.213Z,32.86
2023-11-03T14:42:46.890Z,32.82
2023-11-03T14:45:14.843Z,32.73
2023-11-03T14:47:43.327Z,32.78
2023-11-03T14:50:10.931Z,32.76
2023-11-03T14:52:40.390Z,32.76
2023-11-03T14:55:08.340Z,32.59
2023-11-03T14:57:36.883Z,32.51
2023-11-03T15:00:05.363Z,32.43
2023-11-03T15:02:33.077Z,32.44
2023-11-03T15:05:01.547Z,32.41
2023-11-03T15:07:31.214Z,32.45
2023-11-03T15:09:58.591Z,32.46
2023-11-03T15:12:26.263Z,32.29
2023-11-03T15:14:54.055Z,32.30
2023-11-03T15:17:21.901Z,32.17
2023-11-03T15:19:49.426Z,32.20
2023-11-03T15:22:16.898Z,32.22
2023-11-03T15:24:44.712Z,32.11
2023-11-03T15:27:12.531Z,32.08
2023-11-03T15:29:40.114Z,31.97
2023-11-03T15:32:07.782Z,32.04
2023-11-03T15:34:35.668Z,32.12
2023-11-03T15:37:04.259Z,32.01
2023-11-03T15:39:35.177Z,31.99
2023-11-03T15:42:03.166Z,31.77
2023-11-03T15:44:30.634Z,31.66
2023-11-03T15:46:58.439Z,31.77
2023-11-03T15:49:30.273Z,31.82
2023-11-03T15:51:59.040Z,31.85
2023-11-03T15:54:27.452Z,31.74
2023-11-03T15:56:56.360Z,31.67
2023-11-03T15:59:24.089Z,31.79
2023-11-03T16:01:55.486Z,31.77
2023-11-03T16:04:24.796Z,31.87
2023-11-03T16:06:52.668Z,31.67
2023-11-03T16:09:22.526Z,31.56
2023-11-03T16:11:53.526Z,31.52
2023-11-03T16:14:21.212Z,31.39
2023-11-03T16:16:49.598Z,31.37
2023-11-03T16:19:18.282Z,31.42
2023-11-03T16:21:46.374Z,31.52
2023-11-03T16:24:17.143Z,31.37
2023-11-03T16:26:48.722Z,31.36
2023-11-03T16:29:16.411Z,31.46
2023-11-03T16:31:43.959Z,31.47
2023-11-03T16:34:11.712Z,31.59
2023-11-03T16:36:40.009Z,31.61
2023-11-03T16:39:08.529Z,31.77
2023-11-03T16:41:36.377Z,31.83
2023-11-03T16:44:06.143Z,31.83
2023-11-03T16:46:35.337Z,31.71
2023-11-03T16:49:05.201Z,31.71
2023-11-03T16:51:33.790Z,31.74
2023-11-03T16:54:01.441Z,31.71
2023-11-03T16:56:29.437Z,31.65
2023-11-03T16:58:59.284Z,31.62
2023-11-03T17:01:26.974Z,31.59
2023-11-03T17:03:55.681Z,31.55
2023-11-03T17:06:23.958Z,31.55
2023-11-03T17:08:51.457Z,31.57
2023-11-03T17:11:21.575Z,31.54
2023-11-03T17:13:49.626Z,31.41
2023-11-03T17:16:17.504Z,31.23
2023-11-03T17:18:45.277Z,31.11
2023-11-03T17:21:13.894Z,31.09
2023-11-03T17:23:42.048Z,31.08
2023-11-03T17:26:10.457Z,30.83
2023-11-03T17:28:37.962Z,30.79
2023-11-03T17:31:05.570Z,30.64
2023-11-03T17:33:33.601Z,30.58
2023-11-03T17:36:01.331Z,30.54
2023-11-03T17:38:29.880Z,30.48
2023-11-03T17:41:00.019Z,30.58
2023-11-03T17:43:27.268Z,30.59
2023-11-03T17:45:54.936Z,30.64
2023-11-03T17:48:23.928Z,30.78
2023-11-03T17:50:54.733Z,30.91
2023-11-03T17:53:23.286Z,30.93
2023-11-03T17:55:50.813Z,30.93
2023-11-03T17:58:19.624Z,30.91
2023-11-03T18:00:48.621Z,30.98
2023-11-03T18:03:16.258Z,30.99
2023-11-03T18:05:45.908Z,30.92
2023-11-03T18:08:13.758Z,30.93
2023-11-03T18:10:41.415Z,30.91
2023-11-03T18:13:09.345Z,30.81
2023-11-03T18:15:37.049Z,30.83
2023-11-03T18:18:04.974Z,30.84
2023-11-03T18:20:39.284Z,30.85
2023-11-03T18:23:10.253Z,30.98
2023-11-03T18:25:38.098Z,31.04
2023-11-03T18:28:06.061Z,31.11
2023-11-03T18:30:34.346Z,31.17
2023-11-03T18:33:05.277Z,31.07
2023-11-03T18:35:33.895Z,30.96
2023-11-03T18:38:01.386Z,30.86
2023-11-03T18:40:30.716Z,31.03
2023-11-03T18:42:58.684Z,31.08
2023-11-03T18:45:26.744Z,31.02
2023-11-03T18:47:54.510Z,31.14
2023-11-03T18:52:58.308Z,31.35
2023-11-03T18:56:37.685Z,31.26
2023-11-03T18:59:20.856Z,31.33
2023-11-03T19:07:29.428Z,31.45
2023-11-03T19:08:55.213Z,31.48
2023-11-03T19:11:22.954Z,31.44
2023-11-03T19:13:51.709Z,31.44
2023-11-03T19:16:19.375Z,31.38
2023-11-03T19:18:47.097Z,31.54
2023-11-03T19:21:15.058Z,31.65
2023-11-03T19:23:42.804Z,31.53
2023-11-03T19:26:10.983Z,31.47
2023-11-03T19:28:38.859Z,31.52
2023-11-03T19:31:06.370Z,31.65
2023-11-03T19:33:34.128Z,31.76
2023-11-03T19:36:03.090Z,31.69
2023-11-03T19:38:32.071Z,31.69
2023-11-03T19:40:59.819Z,31.66
2023-11-03T19:43:27.238Z,31.71
2023-11-03T19:45:54.767Z,32.21
2023-11-03T19:48:22.923Z,32.39
2023-11-03T19:50:52.638Z,32.40
2023-11-03T19:53:23.237Z,32.41
2023-11-03T19:55:52.704Z,32.49
2023-11-03T19:58:20.412Z,32.81
2023-11-03T20:00:48.839Z,32.65
2023-11-03T20:03:16.679Z,32.37
2023-11-03T20:05:44.756Z,32.30
2023-11-03T20:08:13.321Z,32.37
2023-11-03T20:10:41.003Z,32.52
2023-11-03T20:13:08.565Z,32.36
2023-11-03T20:15:36.546Z,32.30
2023-11-03T20:18:05.515Z,32.22
2023-11-03T20:20:36.050Z,32.21
2023-11-03T20:23:10.357Z,32.20
2023-11-03T20:25:37.842Z,32.23
2023-11-03T20:28:05.886Z,32.24
2023-11-03T20:30:33.415Z,32.31
2023-11-03T20:33:01.185Z,32.36
2023-11-03T20:35:29.707Z,32.43
2023-11-03T20:37:58.202Z,32.48
2023-11-03T20:40:25.570Z,32.49
2023-11-03T20:42:52.866Z,32.44
2023-11-03T20:45:20.232Z,32.55
2023-11-03T20:47:48.101Z,32.50
2023-11-03T20:50:15.616Z,32.52
2023-11-03T20:52:42.927Z,32.49
2023-11-03T20:55:10.358Z,32.50
2023-11-03T20:57:37.673Z,32.49
2023-11-03T21:00:09.251Z,32.51
2023-11-03T21:02:36.530Z,32.41
2023-11-03T21:05:04.218Z,32.39
2023-11-03T21:07:32.461Z,32.47
2023-11-03T21:09:59.905Z,32.44
2023-11-03T21:12:27.208Z,32.57
2023-11-03T21:14:54.682Z,32.64
2023-11-03T21:17:21.896Z,32.69
2023-11-03T21:19:49.268Z,32.66
2023-11-03T21:22:20.325Z,32.68
2023-11-03T21:24:47.603Z,32.79
2023-11-03T21:27:15.216Z,32.96
2023-11-03T21:29:43.141Z,33.02
2023-11-03T21:32:10.760Z,32.94
2023-11-03T21:34:40.080Z,32.93
2023-11-03T21:37:08.109Z,33.01
2023-11-03T21:39:35.573Z,33.03
2023-11-03T21:42:05.069Z,32.99
2023-11-03T21:44:34.099Z,33.12
2023-11-03T21:47:01.594Z,33.04
2023-11-03T21:49:29.581Z,32.90
2023-11-03T21:51:57.045Z,33.09
2023-11-03T21:54:24.525Z,33.13
2023-11-03T21:56:53.435Z,33.16
2023-11-03T21:59:22.059Z,33.01
2023-11-03T22:01:49.483Z,32.93
2023-11-03T22:04:17.226Z,32.95
2023-11-03T22:06:44.640Z,32.98
2023-11-03T22:09:12.982Z,32.97
2023-11-03T22:11:40.415Z,32.96
2023-11-03T22:14:07.907Z,33.05
2023-11-03T22:16:35.344Z,33.16
2023-11-03T22:19:02.693Z,33.13
2023-11-03T22:21:31.196Z,33.23
2023-11-03T22:24:00.973Z,33.17
2023-11-03T22:26:32.897Z,33.15
2023-11-03T22:29:07.727Z,33.19
2023-11-03T22:31:43.211Z,33.25
2023-11-03T22:34:10.542Z,33.19
2023-11-03T22:36:38.021Z,33.11
2023-11-03T22:39:05.477Z,33.14
2023-11-03T22:41:32.832Z,33.11
2023-11-03T22:43:59.988Z,33.11
2023-11-03T22:46:27.234Z,33.18
2023-11-03T22:48:55.319Z,33.57
2023-11-03T22:51:22.745Z,33.66
2023-11-03T22:53:50.630Z,33.30
2023-11-03T22:56:24.598Z,33.14
2023-11-03T22:58:52.051Z,33.24
2023-11-03T23:01:20.092Z,33.71
2023-11-03T23:03:49.885Z,33.86
2023-11-03T23:06:22.396Z,33.91
2023-11-03T23:08:50.877Z,33.87
2023-11-03T23:11:18.196Z,33.43
2023-11-03T23:13:45.743Z,33.34
2023-11-03T23:16:12.857Z,33.30
2023-11-03T23:18:40.188Z,33.24
2023-11-03T23:21:12.534Z,33.41
2023-11-03T23:23:40.997Z,33.93
2023-11-03T23:26:08.200Z,34.16
2023-11-03T23:28:35.619Z,34.29
2023-11-03T23:31:03.197Z,34.37
2023-11-03T23:33:32.204Z,34.39
2023-11-03T23:35:59.629Z,34.35
2023-11-03T23:38:26.988Z,34.39
2023-11-03T23:40:54.293Z,34.42
2023-11-03T23:43:21.584Z,34.49
2023-11-03T23:45:49.624Z,34.23
2023-11-03T23:48:20.943Z,34.06
2023-11-03T23:50:48.563Z,34.26
2023-11-03T23:53:15.806Z,34.23
2023-11-03T23:55:43.245Z,34.20
2023-11-03T23:58:10.679Z,34.18
